Details for WeGo Cargo at EGLL




Go Back


Latest METAR
Local Time

EGLL 221050Z AUTO 27010KT 9999 -RA OVC041 12/09 Q1020 NOSIG
22/09/2018, 12:17:20

Description
Results
WeGo Cargo Logo
Number of Pilots based at EGLL
1 Pilots Based here
Number of WeGo Cargo Flights Departed from EGLL
33 Flights Departed
Number of WeGo Cargo Flights Arrived at EGLL
31 Flights Arrived
Number of WeGo Cargo Schedules Departing from EGLL
16 Schedules
Number of WeGo Cargo Schedules Arriving at EGLL
16 Schedules
Number of WeGo Cargo Schedules Departing from EGLL availible today
16 Schedules Today
Number of WeGo Cargo Schedules Arriving at EGLL availible today
15 Schedules Today
Average Landing Rate at EGLL
-186 fpm
WeGo Cargo Average Landing Rate at EGLL
-149 fpm
Total Fuel Purchased at EGLL by WeGo Cargo
1,616,150.15 kgs / 3,562,964.62 lbs

Pilots Based at EGLL


Pilot ID
Pilot Name
Pilot Rank
No. of Flights
No. of Flying Hours
Chris Nicholson
53
133.39
Content